sensor_id;sensor_type;location;lat;lon;timestamp;pressure;altitude;pressure_sealevel;temperature;humidity
29385;BME280;16367;48.736;9.218;2024-03-29T00:01:23;-23375.91;;;6.56;70.13
29385;BME280;16367;48.736;9.218;2024-03-29T00:03:24;-23376.72;;;6.58;70.34
29385;BME280;16367;48.736;9.218;2024-03-29T00:05:25;-23381.16;;;6.72;69.89
29385;BME280;16367;48.736;9.218;2024-03-29T00:07:26;-23381.47;;;6.73;69.76
29385;BME280;16367;48.736;9.218;2024-03-29T00:09:26;-23379.41;;;6.67;70.58
29385;BME280;16367;48.736;9.218;2024-03-29T00:11:29;-23380.22;;;6.69;70.10
29385;BME280;16367;48.736;9.218;2024-03-29T00:13:29;-23380.53;;;6.70;70.77
29385;BME280;16367;48.736;9.218;2024-03-29T00:15:31;-23376.88;;;6.59;71.43
29385;BME280;16367;48.736;9.218;2024-03-29T00:17:32;-23377.03;;;6.59;70.91
29385;BME280;16367;48.736;9.218;2024-03-29T00:19:32;-23379.56;;;6.67;70.80
29385;BME280;16367;48.736;9.218;2024-03-29T00:21:33;-23381.16;;;6.72;71.19
29385;BME280;16367;48.736;9.218;2024-03-29T00:23:34;-23377.97;;;6.62;71.36
29385;BME280;16367;48.736;9.218;2024-03-29T00:25:35;-23376.22;;;6.57;71.57
29385;BME280;16367;48.736;9.218;2024-03-29T00:27:37;-23377.03;;;6.59;70.89
29385;BME280;16367;48.736;9.218;2024-03-29T00:29:37;-23379.25;;;6.66;71.73
29385;BME280;16367;48.736;9.218;2024-03-29T00:31:38;-23379.88;;;6.68;71.56
29385;BME280;16367;48.736;9.218;2024-03-29T00:33:39;-23378.47;;;6.64;71.68
29385;BME280;16367;48.736;9.218;2024-03-29T00:35:40;-23383.53;;;6.80;71.86
29385;BME280;16367;48.736;9.218;2024-03-29T00:37:40;-23379.56;;;6.67;71.99
29385;BME280;16367;48.736;9.218;2024-03-29T00:39:42;-23378.94;;;6.65;71.92
29385;BME280;16367;48.736;9.218;2024-03-29T00:41:43;-23380.53;;;6.70;72.28
29385;BME280;16367;48.736;9.218;2024-03-29T00:43:44;-23387.03;;;6.91;71.69
29385;BME280;16367;48.736;9.218;2024-03-29T00:45:45;-23387.03;;;6.91;71.52
29385;BME280;16367;48.736;9.218;2024-03-29T00:47:46;-23386.56;;;6.90;71.13
29385;BME280;16367;48.736;9.218;2024-03-29T00:49:47;-23386.88;;;6.91;70.80
29385;BME280;16367;48.736;9.218;2024-03-29T00:51:47;-23391.34;;;7.05;70.65
29385;BME280;16367;48.736;9.218;2024-03-29T00:53:48;-23391.66;;;7.06;70.49
29385;BME280;16367;48.736;9.218;2024-03-29T00:55:49;-23393.72;;;7.12;70.65
29385;BME280;16367;48.736;9.218;2024-03-29T00:57:49;-23391.66;;;7.06;69.82
29385;BME280;16367;48.736;9.218;2024-03-29T00:59:51;-23395.16;;;7.17;70.77
29385;BME280;16367;48.736;9.218;2024-03-29T01:01:52;-23394.50;;;7.15;70.99
29385;BME280;16367;48.736;9.218;2024-03-29T01:03:53;-23393.88;;;7.13;70.74
29385;BME280;16367;48.736;9.218;2024-03-29T01:05:53;-23393.56;;;7.12;69.85
29385;BME280;16367;48.736;9.218;2024-03-29T01:07:54;-23397.06;;;7.23;70.07
29385;BME280;16367;48.736;9.218;2024-03-29T01:09:55;-23399.13;;;7.29;69.22
29385;BME280;16367;48.736;9.218;2024-03-29T01:11:55;-23396.72;;;7.22;70.12
29385;BME280;16367;48.736;9.218;2024-03-29T01:13:56;-23399.59;;;7.31;69.12
29385;BME280;16367;48.736;9.218;2024-03-29T01:15:58;-23399.28;;;7.30;69.67
29385;BME280;16367;48.736;9.218;2024-03-29T01:17:59;-23400.72;;;7.34;69.10
29385;BME280;16367;48.736;9.218;2024-03-29T01:20:00;-23402.63;;;7.40;68.82
29385;BME280;16367;48.736;9.218;2024-03-29T01:22:00;-23403.41;;;7.43;69.25
29385;BME280;16367;48.736;9.218;2024-03-29T01:24:01;-23400.22;;;7.33;69.26
29385;BME280;16367;48.736;9.218;2024-03-29T01:26:02;-23402.63;;;7.40;68.60
29385;BME280;16367;48.736;9.218;2024-03-29T01:28:03;-23400.22;;;7.33;69.61
29385;BME280;16367;48.736;9.218;2024-03-29T01:30:05;-23402.13;;;7.39;68.50
29385;BME280;16367;48.736;9.218;2024-03-29T01:32:07;-23402.13;;;7.39;69.50
29385;BME280;16367;48.736;9.218;2024-03-29T01:34:08;-23399.91;;;7.32;68.61
29385;BME280;16367;48.736;9.218;2024-03-29T01:36:09;-23401.34;;;7.36;68.95
29385;BME280;16367;48.736;9.218;2024-03-29T01:38:10;-23401.03;;;7.35;69.07
29385;BME280;16367;48.736;9.218;2024-03-29T01:40:11;-23402.78;;;7.41;68.77
29385;BME280;16367;48.736;9.218;2024-03-29T01:42:12;-23403.09;;;7.42;68.22
29385;BME280;16367;48.736;9.218;2024-03-29T01:44:13;-23405.78;;;7.50;67.15
29385;BME280;16367;48.736;9.218;2024-03-29T01:46:14;-23407.84;;;7.57;67.23
29385;BME280;16367;48.736;9.218;2024-03-29T01:48:17;-23408.50;;;7.59;67.56
29385;BME280;16367;48.736;9.218;2024-03-29T01:50:18;-23408.00;;;7.58;67.14
29385;BME280;16367;48.736;9.218;2024-03-29T01:52:19;-23406.59;;;7.53;67.58
29385;BME280;16367;48.736;9.218;2024-03-29T01:54:20;-23404.03;;;7.45;68.26
29385;BME280;16367;48.736;9.218;2024-03-29T01:56:22;-23401.50;;;7.37;67.56
29385;BME280;16367;48.736;9.218;2024-03-29T01:58:23;-23401.81;;;7.38;68.02
29385;BME280;16367;48.736;9.218;2024-03-29T02:00:25;-23402.28;;;7.39;67.70
29385;BME280;16367;48.736;9.218;2024-03-29T02:02:26;-23405.31;;;7.49;67.52
29385;BME280;16367;48.736;9.218;2024-03-29T02:04:29;-23400.06;;;7.32;68.56
29385;BME280;16367;48.736;9.218;2024-03-29T02:06:30;-23402.94;;;7.41;68.27
29385;BME280;16367;48.736;9.218;2024-03-29T02:08:30;-23402.63;;;7.40;67.68
29385;BME280;16367;48.736;9.218;2024-03-29T02:10:31;-23403.09;;;7.42;68.41
29385;BME280;16367;48.736;9.218;2024-03-29T02:12:32;-23402.94;;;7.41;68.33
29385;BME280;16367;48.736;9.218;2024-03-29T02:14:32;-23399.44;;;7.30;69.28
29385;BME280;16367;48.736;9.218;2024-03-29T02:16:33;-23398.47;;;7.27;69.14
29385;BME280;16367;48.736;9.218;2024-03-29T02:18:34;-23396.09;;;7.20;68.83
29385;BME280;16367;48.736;9.218;2024-03-29T02:20:36;-23398.31;;;7.27;69.06
29385;BME280;16367;48.736;9.218;2024-03-29T02:22:41;-23396.72;;;7.22;68.95
29385;BME280;16367;48.736;9.218;2024-03-29T02:24:46;-23398.66;;;7.28;69.18
29385;BME280;16367;48.736;9.218;2024-03-29T02:26:48;-23397.53;;;7.24;68.73
29385;BME280;16367;48.736;9.218;2024-03-29T02:28:49;-23395.94;;;7.19;70.10
29385;BME280;16367;48.736;9.218;2024-03-29T02:30:50;-23398.16;;;7.26;68.30
29385;BME280;16367;48.736;9.218;2024-03-29T02:32:51;-23397.69;;;7.25;68.88
29385;BME280;16367;48.736;9.218;2024-03-29T02:34:53;-23399.13;;;7.29;68.28
29385;BME280;16367;48.736;9.218;2024-03-29T02:36:54;-23401.66;;;7.37;68.10
29385;BME280;16367;48.736;9.218;2024-03-29T02:38:54;-23396.41;;;7.21;69.37
29385;BME280;16367;48.736;9.218;2024-03-29T02:40:56;-23395.00;;;7.16;69.69
29385;BME280;16367;48.736;9.218;2024-03-29T02:42:57;-23394.81;;;7.16;69.89
29385;BME280;16367;48.736;9.218;2024-03-29T02:44:58;-23400.22;;;7.33;68.96
29385;BME280;16367;48.736;9.218;2024-03-29T02:46:58;-23398.97;;;7.29;68.73
29385;BME280;16367;48.736;9.218;2024-03-29T02:48:59;-23401.97;;;7.38;68.11
29385;BME280;16367;48.736;9.218;2024-03-29T02:51:00;-23396.41;;;7.21;69.07
29385;BME280;16367;48.736;9.218;2024-03-29T02:53:00;-23395.16;;;7.17;69.13
29385;BME280;16367;48.736;9.218;2024-03-29T02:55:01;-23394.81;;;7.16;68.85
29385;BME280;16367;48.736;9.218;2024-03-29T02:57:04;-23398.66;;;7.28;68.34
29385;BME280;16367;48.736;9.218;2024-03-29T02:59:04;-23399.59;;;7.31;68.60
29385;BME280;16367;48.736;9.218;2024-03-29T03:01:06;-23401.81;;;7.38;68.34
29385;BME280;16367;48.736;9.218;2024-03-29T03:03:07;-23403.25;;;7.42;67.93
29385;BME280;16367;48.736;9.218;2024-03-29T03:05:08;-23404.34;;;7.46;66.93
29385;BME280;16367;48.736;9.218;2024-03-29T03:07:08;-23405.94;;;7.51;67.11
29385;BME280;16367;48.736;9.218;2024-03-29T03:09:09;-23406.75;;;7.53;66.25
29385;BME280;16367;48.736;9.218;2024-03-29T03:11:10;-23405.31;;;7.49;67.32
29385;BME280;16367;48.736;9.218;2024-03-29T03:13:12;-23405.31;;;7.49;67.31
29385;BME280;16367;48.736;9.218;2024-03-29T03:15:12;-23404.03;;;7.45;67.49
29385;BME280;16367;48.736;9.218;2024-03-29T03:17:13;-23403.88;;;7.44;67.15
29385;BME280;16367;48.736;9.218;2024-03-29T03:19:14;-23404.69;;;7.47;66.94
29385;BME280;16367;48.736;9.218;2024-03-29T03:21:14;-23406.28;;;7.52;67.15
29385;BME280;16367;48.736;9.218;2024-03-29T03:23:15;-23408.16;;;7.58;66.61
29385;BME280;16367;48.736;9.218;2024-03-29T03:25:16;-23409.75;;;7.63;66.21
29385;BME280;16367;48.736;9.218;2024-03-29T03:27:16;-23409.44;;;7.62;66.26
29385;BME280;16367;48.736;9.218;2024-03-29T03:29:19;-23409.91;;;7.64;66.49
29385;BME280;16367;48.736;9.218;2024-03-29T03:31:19;-23411.66;;;7.69;66.41
29385;BME280;16367;48.736;9.218;2024-03-29T03:33:20;-23414.69;;;7.79;65.36
29385;BME280;16367;48.736;9.218;2024-03-29T03:35:21;-23416.75;;;7.85;65.08
29385;BME280;16367;48.736;9.218;2024-03-29T03:37:21;-23418.66;;;7.91;65.21
29385;BME280;16367;48.736;9.218;2024-03-29T03:39:22;-23415.78;;;7.82;65.94
29385;BME280;16367;48.736;9.218;2024-03-29T03:41:23;-23414.69;;;7.79;66.46
29385;BME280;16367;48.736;9.218;2024-03-29T03:43:24;-23413.88;;;7.76;66.73
29385;BME280;16367;48.736;9.218;2024-03-29T03:45:26;-23412.31;;;7.71;66.84
29385;BME280;16367;48.736;9.218;2024-03-29T03:47:27;-23413.25;;;7.74;68.90
29385;BME280;16367;48.736;9.218;2024-03-29T03:49:28;-23412.13;;;7.71;67.90
29385;BME280;16367;48.736;9.218;2024-03-29T03:51:28;-23413.25;;;7.74;66.67
29385;BME280;16367;48.736;9.218;2024-03-29T03:53:29;-23419.44;;;7.94;65.60
29385;BME280;16367;48.736;9.218;2024-03-29T03:55:30;-23426.44;;;8.16;64.24
29385;BME280;16367;48.736;9.218;2024-03-29T03:57:30;-23425.31;;;8.12;64.34
29385;BME280;16367;48.736;9.218;2024-03-29T03:59:31;-23427.84;;;8.20;64.14
29385;BME280;16367;48.736;9.218;2024-03-29T04:01:34;-23434.22;;;8.41;62.38
29385;BME280;16367;48.736;9.218;2024-03-29T04:03:34;-23433.91;;;8.40;62.09
29385;BME280;16367;48.736;9.218;2024-03-29T04:05:36;-23430.56;;;8.29;64.11
29385;BME280;16367;48.736;9.218;2024-03-29T04:07:37;-23429.78;;;8.27;63.65
29385;BME280;16367;48.736;9.218;2024-03-29T04:09:38;-23427.84;;;8.20;64.58
29385;BME280;16367;48.736;9.218;2024-03-29T04:11:39;-23422.94;;;8.05;64.76
29385;BME280;16367;48.736;9.218;2024-03-29T04:13:39;-23421.03;;;7.99;66.12
29385;BME280;16367;48.736;9.218;2024-03-29T04:15:40;-23426.59;;;8.16;64.51
29385;BME280;16367;48.736;9.218;2024-03-29T04:17:42;-23427.38;;;8.19;63.28
29385;BME280;16367;48.736;9.218;2024-03-29T04:19:43;-23428.81;;;8.23;64.24
29385;BME280;16367;48.736;9.218;2024-03-29T04:21:43;-23430.09;;;8.27;63.37
29385;BME280;16367;48.736;9.218;2024-03-29T04:23:44;-23430.88;;;8.30;64.00
29385;BME280;16367;48.736;9.218;2024-03-29T04:25:51;-23427.53;;;8.19;64.47
29385;BME280;16367;48.736;9.218;2024-03-29T04:27:52;-23423.09;;;8.05;64.80
29385;BME280;16367;48.736;9.218;2024-03-29T04:29:53;-23420.41;;;7.97;64.69
29385;BME280;16367;48.736;9.218;2024-03-29T04:31:54;-23422.78;;;8.04;64.21
29385;BME280;16367;48.736;9.218;2024-03-29T04:33:56;-23423.25;;;8.06;63.70
29385;BME280;16367;48.736;9.218;2024-03-29T04:35:58;-23424.06;;;8.08;64.30
29385;BME280;16367;48.736;9.218;2024-03-29T04:37:58;-23424.84;;;8.11;65.24
29385;BME280;16367;48.736;9.218;2024-03-29T04:39:59;-23427.72;;;8.20;63.34
29385;BME280;16367;48.736;9.218;2024-03-29T04:42:00;-23427.84;;;8.20;64.30
29385;BME280;16367;48.736;9.218;2024-03-29T04:44:01;-23434.06;;;8.40;62.38
29385;BME280;16367;48.736;9.218;2024-03-29T04:46:02;-23435.00;;;8.43;62.03
29385;BME280;16367;48.736;9.218;2024-03-29T04:48:04;-23433.28;;;8.38;62.58
29385;BME280;16367;48.736;9.218;2024-03-29T04:50:07;-23435.47;;;8.45;62.43
29385;BME280;16367;48.736;9.218;2024-03-29T04:52:08;-23432.63;;;8.36;63.67
29385;BME280;16367;48.736;9.218;2024-03-29T04:54:08;-23439.28;;;8.57;62.77
29385;BME280;16367;48.736;9.218;2024-03-29T04:56:09;-23434.84;;;8.43;63.40
29385;BME280;16367;48.736;9.218;2024-03-29T04:58:10;-23436.13;;;8.47;62.05
29385;BME280;16367;48.736;9.218;2024-03-29T05:00:11;-23432.31;;;8.35;63.08
29385;BME280;16367;48.736;9.218;2024-03-29T05:02:12;-23434.84;;;8.43;63.27
29385;BME280;16367;48.736;9.218;2024-03-29T05:04:12;-23435.16;;;8.44;62.38
29385;BME280;16367;48.736;9.218;2024-03-29T05:06:14;-23439.28;;;8.57;61.85
29385;BME280;16367;48.736;9.218;2024-03-29T05:08:15;-23436.75;;;8.49;62.65
29385;BME280;16367;48.736;9.218;2024-03-29T05:10:16;-23437.41;;;8.51;62.26
29385;BME280;16367;48.736;9.218;2024-03-29T05:12:16;-23436.59;;;8.48;62.41
29385;BME280;16367;48.736;9.218;2024-03-29T05:14:19;-23439.94;;;8.59;61.26
29385;BME280;16367;48.736;9.218;2024-03-29T05:16:20;-23439.47;;;8.57;61.47
29385;BME280;16367;48.736;9.218;2024-03-29T05:18:20;-23436.59;;;8.48;60.87
29385;BME280;16367;48.736;9.218;2024-03-29T05:20:21;-23434.22;;;8.41;61.97
29385;BME280;16367;48.736;9.218;2024-03-29T05:22:23;-23434.53;;;8.42;62.98
29385;BME280;16367;48.736;9.218;2024-03-29T05:24:24;-23435.00;;;8.43;61.86
29385;BME280;16367;48.736;9.218;2024-03-29T05:26:25;-23433.91;;;8.40;62.95
29385;BME280;16367;48.736;9.218;2024-03-29T05:28:25;-23433.91;;;8.40;62.29
29385;BME280;16367;48.736;9.218;2024-03-29T05:30:26;-23433.09;;;8.37;62.76
29385;BME280;16367;48.736;9.218;2024-03-29T05:32:27;-23433.28;;;8.38;62.18
29385;BME280;16367;48.736;9.218;2024-03-29T05:34:28;-23442.16;;;8.66;61.78
29385;BME280;16367;48.736;9.218;2024-03-29T05:36:28;-23434.84;;;8.43;62.03
29385;BME280;16367;48.736;9.218;2024-03-29T05:38:30;-23442.16;;;8.66;62.39
29385;BME280;16367;48.736;9.218;2024-03-29T05:40:31;-23437.06;;;8.50;62.40
29385;BME280;16367;48.736;9.218;2024-03-29T05:42:32;-23432.94;;;8.37;62.48
29385;BME280;16367;48.736;9.218;2024-03-29T05:44:35;-23431.03;;;8.31;63.06
29385;BME280;16367;48.736;9.218;2024-03-29T05:46:35;-23435.34;;;8.44;62.50
29385;BME280;16367;48.736;9.218;2024-03-29T05:48:36;-23436.75;;;8.49;62.06
29385;BME280;16367;48.736;9.218;2024-03-29T05:50:37;-23435.81;;;8.46;61.34
29385;BME280;16367;48.736;9.218;2024-03-29T05:52:37;-23437.22;;;8.50;61.53
29385;BME280;16367;48.736;9.218;2024-03-29T05:54:39;-23435.97;;;8.46;61.95
29385;BME280;16367;48.736;9.218;2024-03-29T05:56:40;-23434.84;;;8.43;62.45
29385;BME280;16367;48.736;9.218;2024-03-29T05:58:41;-23435.66;;;8.45;62.05
29385;BME280;16367;48.736;9.218;2024-03-29T06:00:41;-23435.34;;;8.44;61.52
29385;BME280;16367;48.736;9.218;2024-03-29T06:02:42;-23437.06;;;8.50;61.51
29385;BME280;16367;48.736;9.218;2024-03-29T06:04:43;-23438.03;;;8.53;60.79
29385;BME280;16367;48.736;9.218;2024-03-29T06:06:44;-23436.75;;;8.49;62.06
29385;BME280;16367;48.736;9.218;2024-03-29T06:08:44;-23438.50;;;8.54;61.35
29385;BME280;16367;48.736;9.218;2024-03-29T06:10:46;-23438.97;;;8.56;61.34
29385;BME280;16367;48.736;9.218;2024-03-29T06:12:47;-23442.31;;;8.66;60.83
29385;BME280;16367;48.736;9.218;2024-03-29T06:14:48;-23450.88;;;8.93;61.50
29385;BME280;16367;48.736;9.218;2024-03-29T06:16:48;-23452.78;;;8.99;62.14
29385;BME280;16367;48.736;9.218;2024-03-29T06:18:49;-23454.84;;;9.06;62.36
29385;BME280;16367;48.736;9.218;2024-03-29T06:20:50;-23452.94;;;9.00;61.65
29385;BME280;16367;48.736;9.218;2024-03-29T06:22:51;-23452.00;;;8.97;61.34
29385;BME280;16367;48.736;9.218;2024-03-29T06:24:51;-23448.97;;;8.87;61.56
29385;BME280;16367;48.736;9.218;2024-03-29T06:26:53;-23458.97;;;9.19;61.06
29385;BME280;16367;48.736;9.218;2024-03-29T06:28:54;-23460.72;;;9.25;60.64
29385;BME280;16367;48.736;9.218;2024-03-29T06:30:55;-23457.06;;;9.13;61.39
29385;BME280;16367;48.736;9.218;2024-03-29T06:32:55;-23451.19;;;8.94;61.08
29385;BME280;16367;48.736;9.218;2024-03-29T06:34:56;-23456.44;;;9.11;60.98
29385;BME280;16367;48.736;9.218;2024-03-29T06:36:57;-23450.25;;;8.91;61.36
29385;BME280;16367;48.736;9.218;2024-03-29T06:38:58;-23458.66;;;9.18;61.65
29385;BME280;16367;48.736;9.218;2024-03-29T06:40:58;-23453.56;;;9.02;61.68
29385;BME280;16367;48.736;9.218;2024-03-29T06:43:00;-23457.22;;;9.14;62.31
29385;BME280;16367;48.736;9.218;2024-03-29T06:45:01;-23463.09;;;9.32;60.52
29385;BME280;16367;48.736;9.218;2024-03-29T06:47:02;-23469.44;;;9.52;60.84
29385;BME280;16367;48.736;9.218;2024-03-29T06:49:03;-23470.69;;;9.56;60.22
29385;BME280;16367;48.736;9.218;2024-03-29T06:51:04;-23479.59;;;9.85;59.26
29385;BME280;16367;48.736;9.218;2024-03-29T06:53:05;-23469.13;;;9.51;60.11
29385;BME280;16367;48.736;9.218;2024-03-29T06:55:06;-23472.44;;;9.62;59.50
29385;BME280;16367;48.736;9.218;2024-03-29T06:57:07;-23470.69;;;9.56;59.18
29385;BME280;16367;48.736;9.218;2024-03-29T06:59:09;-23478.63;;;9.82;58.91
29385;BME280;16367;48.736;9.218;2024-03-29T07:01:09;-23478.00;;;9.80;58.15
29385;BME280;16367;48.736;9.218;2024-03-29T07:03:10;-23478.47;;;9.81;60.07
29385;BME280;16367;48.736;9.218;2024-03-29T07:05:11;-23472.59;;;9.62;59.97
29385;BME280;16367;48.736;9.218;2024-03-29T07:07:11;-23472.59;;;9.62;60.95
29385;BME280;16367;48.736;9.218;2024-03-29T07:09:12;-23472.13;;;9.61;61.58
29385;BME280;16367;48.736;9.218;2024-03-29T07:11:13;-23471.03;;;9.57;60.59
29385;BME280;16367;48.736;9.218;2024-03-29T07:13:13;-23474.81;;;9.69;60.19
29385;BME280;16367;48.736;9.218;2024-03-29T07:15:15;-23474.97;;;9.70;60.29
29385;BME280;16367;48.736;9.218;2024-03-29T07:17:16;-23469.13;;;9.51;60.38
29385;BME280;16367;48.736;9.218;2024-03-29T07:19:17;-23470.69;;;9.56;61.29
29385;BME280;16367;48.736;9.218;2024-03-29T07:21:18;-23472.44;;;9.62;61.14
29385;BME280;16367;48.736;9.218;2024-03-29T07:23:18;-23468.16;;;9.48;61.04
29385;BME280;16367;48.736;9.218;2024-03-29T07:25:19;-23466.25;;;9.42;61.33
29385;BME280;16367;48.736;9.218;2024-03-29T07:27:20;-23465.94;;;9.41;63.40
29385;BME280;16367;48.736;9.218;2024-03-29T07:29:20;-23459.91;;;9.22;63.27
29385;BME280;16367;48.736;9.218;2024-03-29T07:31:22;-23461.19;;;9.26;63.55
29385;BME280;16367;48.736;9.218;2024-03-29T07:33:24;-23455.97;;;9.10;64.75
29385;BME280;16367;48.736;9.218;2024-03-29T07:35:25;-23448.81;;;8.87;67.92
29385;BME280;16367;48.736;9.218;2024-03-29T07:37:26;-23443.75;;;8.71;71.03
29385;BME280;16367;48.736;9.218;2024-03-29T07:39:26;-23443.41;;;8.70;71.11
29385;BME280;16367;48.736;9.218;2024-03-29T07:41:27;-23441.69;;;8.64;74.09
29385;BME280;16367;48.736;9.218;2024-03-29T07:43:37;-23436.13;;;8.47;75.33
29385;BME280;16367;48.736;9.218;2024-03-29T07:45:38;-23423.72;;;8.07;84.05
29385;BME280;16367;48.736;9.218;2024-03-29T07:47:40;-23428.50;;;8.22;84.95
29385;BME280;16367;48.736;9.218;2024-03-29T07:49:41;-23427.53;;;8.19;81.99
29385;BME280;16367;48.736;9.218;2024-03-29T07:51:42;-23421.81;;;8.01;83.96
29385;BME280;16367;48.736;9.218;2024-03-29T07:53:42;-23421.19;;;7.99;84.25
29385;BME280;16367;48.736;9.218;2024-03-29T07:55:43;-23415.47;;;7.81;88.46
29385;BME280;16367;48.736;9.218;2024-03-29T07:57:44;-23410.25;;;7.65;92.17
29385;BME280;16367;48.736;9.218;2024-03-29T07:59:44;-23407.22;;;7.55;93.02
29385;BME280;16367;48.736;9.218;2024-03-29T08:01:45;-23408.97;;;7.61;93.12
29385;BME280;16367;48.736;9.218;2024-03-29T08:03:49;-23409.13;;;7.61;91.66
29385;BME280;16367;48.736;9.218;2024-03-29T08:05:57;-23405.31;;;7.49;93.17
29385;BME280;16367;48.736;9.218;2024-03-29T08:07:58;-23404.84;;;7.47;94.66
29385;BME280;16367;48.736;9.218;2024-03-29T08:09:59;-23403.88;;;7.44;94.51
29385;BME280;16367;48.736;9.218;2024-03-29T08:11:59;-23404.69;;;7.47;94.32
29385;BME280;16367;48.736;9.218;2024-03-29T08:14:00;-23402.13;;;7.39;96.88
29385;BME280;16367;48.736;9.218;2024-03-29T08:16:01;-23401.97;;;7.38;97.54
29385;BME280;16367;48.736;9.218;2024-03-29T08:18:02;-23403.72;;;7.44;96.79
29385;BME280;16367;48.736;9.218;2024-03-29T08:20:05;-23402.44;;;7.40;97.57
29385;BME280;16367;48.736;9.218;2024-03-29T08:22:06;-23407.84;;;7.57;94.82
29385;BME280;16367;48.736;9.218;2024-03-29T08:24:07;-23408.81;;;7.60;96.76
29385;BME280;16367;48.736;9.218;2024-03-29T08:26:07;-23407.84;;;7.57;97.37
29385;BME280;16367;48.736;9.218;2024-03-29T08:28:08;-23410.06;;;7.64;98.94
29385;BME280;16367;48.736;9.218;2024-03-29T08:30:10;-23413.72;;;7.76;99.93
29385;BME280;16367;48.736;9.218;2024-03-29T08:32:11;-23416.75;;;7.85;100.00
29385;BME280;16367;48.736;9.218;2024-03-29T08:34:11;-23420.56;;;7.97;99.92
29385;BME280;16367;48.736;9.218;2024-03-29T08:36:13;-23417.38;;;7.87;100.00
29385;BME280;16367;48.736;9.218;2024-03-29T08:38:14;-23420.09;;;7.96;100.00
29385;BME280;16367;48.736;9.218;2024-03-29T08:40:15;-23422.78;;;8.04;100.00
29385;BME280;16367;48.736;9.218;2024-03-29T08:42:16;-23423.09;;;8.05;100.00
29385;BME280;16367;48.736;9.218;2024-03-29T08:44:16;-23425.47;;;8.13;100.00
29385;BME280;16367;48.736;9.218;2024-03-29T08:46:17;-23431.34;;;8.32;100.00
29385;BME280;16367;48.736;9.218;2024-03-29T08:48:18;-23431.53;;;8.32;100.00
29385;BME280;16367;48.736;9.218;2024-03-29T08:50:18;-23427.72;;;8.20;100.00
29385;BME280;16367;48.736;9.218;2024-03-29T08:52:20;-23431.19;;;8.31;100.00
29385;BME280;16367;48.736;9.218;2024-03-29T08:54:21;-23427.53;;;8.19;100.00
29385;BME280;16367;48.736;9.218;2024-03-29T08:56:22;-23432.94;;;8.37;100.00
29385;BME280;16367;48.736;9.218;2024-03-29T08:58:23;-23437.72;;;8.52;100.00
29385;BME280;16367;48.736;9.218;2024-03-29T09:00:23;-23435.97;;;8.46;100.00
29385;BME280;16367;48.736;9.218;2024-03-29T09:02:24;-23441.19;;;8.63;100.00
29385;BME280;16367;48.736;9.218;2024-03-29T09:04:25;-23446.28;;;8.79;100.00
29385;BME280;16367;48.736;9.218;2024-03-29T09:06:25;-23442.31;;;8.66;100.00
29385;BME280;16367;48.736;9.218;2024-03-29T09:08:27;-23441.34;;;8.63;100.00
29385;BME280;16367;48.736;9.218;2024-03-29T09:10:28;-23444.69;;;8.74;100.00
29385;BME280;16367;48.736;9.218;2024-03-29T09:12:29;-23449.44;;;8.89;100.00
29385;BME280;16367;48.736;9.218;2024-03-29T09:14:29;-23454.84;;;9.06;100.00
29385;BME280;16367;48.736;9.218;2024-03-29T09:16:30;-23463.09;;;9.32;100.00
29385;BME280;16367;48.736;9.218;2024-03-29T09:18:31;-23465.94;;;9.41;100.00
29385;BME280;16367;48.736;9.218;2024-03-29T09:20:31;-23473.41;;;9.65;100.00
29385;BME280;16367;48.736;9.218;2024-03-29T09:22:32;-23475.47;;;9.71;100.00
29385;BME280;16367;48.736;9.218;2024-03-29T09:24:34;-23470.22;;;9.55;100.00
29385;BME280;16367;48.736;9.218;2024-03-29T09:26:35;-23476.41;;;9.74;100.00
29385;BME280;16367;48.736;9.218;2024-03-29T09:28:35;-23466.25;;;9.42;100.00
29385;BME280;16367;48.736;9.218;2024-03-29T09:30:36;-23462.63;;;9.31;100.00
29385;BME280;16367;48.736;9.218;2024-03-29T09:32:37;-23464.03;;;9.35;100.00
29385;BME280;16367;48.736;9.218;2024-03-29T09:34:37;-23467.06;;;9.45;100.00
29385;BME280;16367;48.736;9.218;2024-03-29T09:36:38;-23470.06;;;9.54;100.00
29385;BME280;16367;48.736;9.218;2024-03-29T09:38:39;-23473.09;;;9.64;100.00
29385;BME280;16367;48.736;9.218;2024-03-29T09:40:41;-23467.22;;;9.45;100.00
29385;BME280;16367;48.736;9.218;2024-03-29T09:42:43;-23467.84;;;9.47;100.00
29385;BME280;16367;48.736;9.218;2024-03-29T09:44:45;-23468.31;;;9.49;100.00
29385;BME280;16367;48.736;9.218;2024-03-29T09:46:47;-23473.25;;;9.64;100.00
29385;BME280;16367;48.736;9.218;2024-03-29T09:48:49;-23478.94;;;9.83;100.00
29385;BME280;16367;48.736;9.218;2024-03-29T09:50:50;-23494.81;;;10.33;100.00
29385;BME280;16367;48.736;9.218;2024-03-29T09:52:53;-23496.88;;;10.39;100.00
29385;BME280;16367;48.736;9.218;2024-03-29T09:54:55;-23504.47;;;10.64;100.00
29385;BME280;16367;48.736;9.218;2024-03-29T09:56:58;-23501.13;;;10.53;100.00
29385;BME280;16367;48.736;9.218;2024-03-29T09:58:59;-23490.22;;;10.18;100.00
29385;BME280;16367;48.736;9.218;2024-03-29T10:01:00;-23496.72;;;10.39;100.00
29385;BME280;16367;48.736;9.218;2024-03-29T10:03:01;-23500.03;;;10.49;100.00
29385;BME280;16367;48.736;9.218;2024-03-29T10:05:07;-23499.88;;;10.49;100.00
29385;BME280;16367;48.736;9.218;2024-03-29T10:07:09;-23489.41;;;10.16;100.00
29385;BME280;16367;48.736;9.218;2024-03-29T10:09:10;-23492.44;;;10.25;100.00
29385;BME280;16367;48.736;9.218;2024-03-29T10:11:13;-23497.03;;;10.40;100.00
29385;BME280;16367;48.736;9.218;2024-03-29T10:13:15;-23489.72;;;10.17;100.00
29385;BME280;16367;48.736;9.218;2024-03-29T10:15:15;-23492.75;;;10.26;100.00
29385;BME280;16367;48.736;9.218;2024-03-29T10:17:16;-23504.94;;;10.65;100.00
29385;BME280;16367;48.736;9.218;2024-03-29T10:19:17;-23505.09;;;10.66;100.00
29385;BME280;16367;48.736;9.218;2024-03-29T10:21:24;-23521.72;;;11.18;100.00
29385;BME280;16367;48.736;9.218;2024-03-29T10:23:25;-23541.69;;;11.82;100.00
29385;BME280;16367;48.736;9.218;2024-03-29T10:25:25;-23553.38;;;12.19;100.00
29385;BME280;16367;48.736;9.218;2024-03-29T10:27:26;-23583.28;;;13.14;92.84
29385;BME280;16367;48.736;9.218;2024-03-29T10:29:29;-23572.03;;;12.79;93.76
29385;BME280;16367;48.736;9.218;2024-03-29T10:31:33;-23546.09;;;11.96;95.10
29385;BME280;16367;48.736;9.218;2024-03-29T10:33:34;-23548.97;;;12.05;97.37
29385;BME280;16367;48.736;9.218;2024-03-29T10:35:35;-23557.50;;;12.32;95.12
29385;BME280;16367;48.736;9.218;2024-03-29T10:37:36;-23553.38;;;12.19;94.70
29385;BME280;16367;48.736;9.218;2024-03-29T10:39:42;-23539.00;;;11.73;94.69